Terminal Aerodrome Forecast
Issued by NWS Shreveport, LA

Home | Current Version | Previous Version | Text Only | Print | Product List | Glossary On
Versions: 1 2 3 4 5 6 7 8 9 10 11 12 13 14 15 16 17 18 19
000
FTUS44 KSHV 260800 AAA
TAFLFK
TAF AMD
KLFK 260815Z 2608/2706 13006KT P6SM BKN035
     FM261200 13008KT P6SM OVC015
     FM270000 14009KT 4SM BR OVC007
     FM270300 14010KT 2SM -DZ BR OVC004=

USA.gov is the U.S. government's official web portal to all federal, state and local government web resources and services.